Etusivu
METAR-TAF:

METAR-TAF

Lentoasemat :

Winchester, Tennessee, Yhdysvallat

Leveyspiiri: 35-10-39N, Pituuspiiri: 086-03-58W, korkeus merenpinnasta: 298 m

Tämänhetkinen sää

Tämä raportti tehtiin 24 minuuttia sitten, kello 15.35 UTC
Tuuli 10 kn idästä/kaakosta
Lämpötila 8°C
Kosteus 100%
Ilmanpaine 1020 hPa
Näkyvyys: 6.4 km
Hajonneita pilviä 3600 ft:n korkeudessa
Hajonneita pilviä 4200 ft:n korkeudessa
utua

METAR: KBGF 261535Z AUTO 11010KT 4SM BR BKN036 BKN042 08/08 A3012 RMK A01

Aika: 09:59 (15:59 UTC)


TAF: puuttuu

Säähavainnot ja -ennusteet yli 4000 lentoasemalta (METAR- ja TAF-raportit).

Käytössä olevat sääasemat on merkitty karttaan keltaisilla ja punaisilla pisteillä.

Aseta hiiri pisteen päälle nähdäksesi sääaseman nimen.

Klikkaa sitten nähdäksesi säähavainnot ja -ennusteet.

Kartan vaihtaminen: klikkaa mustalla rastilla varustettuja vihreitä pisteitä, niin voit zoomata sisään; viivalla varustettua vihreää pistettä, niin voit zoomata ulos tai vihreitä nuolia, niin pääset viereisille kartoille.


METAR-TAF: